sensor_id;sensor_type;location;lat;lon;timestamp;temperature;humidity
3713;DHT22;1872;51.406;6.856;2023-06-14T00:02:09;20.30;62.20
3713;DHT22;1872;51.406;6.856;2023-06-14T00:04:35;20.30;62.30
3713;DHT22;1872;51.406;6.856;2023-06-14T00:07:02;20.20;62.30
3713;DHT22;1872;51.406;6.856;2023-06-14T00:09:27;20.20;62.40
3713;DHT22;1872;51.406;6.856;2023-06-14T00:11:53;20.20;62.60
3713;DHT22;1872;51.406;6.856;2023-06-14T00:14:20;20.10;62.70
3713;DHT22;1872;51.406;6.856;2023-06-14T00:16:45;20.10;62.80
3713;DHT22;1872;51.406;6.856;2023-06-14T00:19:11;20.10;63.00
3713;DHT22;1872;51.406;6.856;2023-06-14T00:21:37;20.10;63.10
3713;DHT22;1872;51.406;6.856;2023-06-14T00:24:04;20.00;63.20
3713;DHT22;1872;51.406;6.856;2023-06-14T00:26:30;20.00;63.30
3713;DHT22;1872;51.406;6.856;2023-06-14T00:28:55;19.90;63.20
3713;DHT22;1872;51.406;6.856;2023-06-14T00:31:22;19.90;63.40
3713;DHT22;1872;51.406;6.856;2023-06-14T00:33:48;19.90;63.50
3713;DHT22;1872;51.406;6.856;2023-06-14T00:36:14;19.90;63.70
3713;DHT22;1872;51.406;6.856;2023-06-14T00:38:40;19.80;63.70
3713;DHT22;1872;51.406;6.856;2023-06-14T00:41:05;19.80;63.80
3713;DHT22;1872;51.406;6.856;2023-06-14T00:43:31;19.70;63.90
3713;DHT22;1872;51.406;6.856;2023-06-14T00:45:58;19.70;64.10
3713;DHT22;1872;51.406;6.856;2023-06-14T00:48:24;19.70;64.20
3713;DHT22;1872;51.406;6.856;2023-06-14T00:50:51;19.70;64.30
3713;DHT22;1872;51.406;6.856;2023-06-14T00:53:19;19.60;64.40
3713;DHT22;1872;51.406;6.856;2023-06-14T00:55:46;19.60;64.60
3713;DHT22;1872;51.406;6.856;2023-06-14T00:58:12;19.50;64.60
3713;DHT22;1872;51.406;6.856;2023-06-14T01:00:39;19.50;64.70
3713;DHT22;1872;51.406;6.856;2023-06-14T01:03:04;19.50;64.90
3713;DHT22;1872;51.406;6.856;2023-06-14T01:05:31;19.50;65.00
3713;DHT22;1872;51.406;6.856;2023-06-14T01:10:41;19.40;65.10
3713;DHT22;1872;51.406;6.856;2023-06-14T01:13:45;19.30;65.30
3713;DHT22;1872;51.406;6.856;2023-06-14T01:16:10;19.30;65.40
3713;DHT22;1872;51.406;6.856;2023-06-14T01:18:37;19.20;65.20
3713;DHT22;1872;51.406;6.856;2023-06-14T01:21:03;19.20;65.30
3713;DHT22;1872;51.406;6.856;2023-06-14T01:23:31;19.20;65.60
3713;DHT22;1872;51.406;6.856;2023-06-14T01:25:59;19.10;65.50
3713;DHT22;1872;51.406;6.856;2023-06-14T01:28:26;19.10;65.60
3713;DHT22;1872;51.406;6.856;2023-06-14T01:31:00;19.10;65.60
3713;DHT22;1872;51.406;6.856;2023-06-14T01:33:30;19.10;65.60
3713;DHT22;1872;51.406;6.856;2023-06-14T01:35:56;19.10;65.50
3713;DHT22;1872;51.406;6.856;2023-06-14T01:38:25;19.00;65.40
3713;DHT22;1872;51.406;6.856;2023-06-14T01:40:52;19.00;65.60
3713;DHT22;1872;51.406;6.856;2023-06-14T01:43:20;18.90;65.60
3713;DHT22;1872;51.406;6.856;2023-06-14T01:45:47;18.90;65.60
3713;DHT22;1872;51.406;6.856;2023-06-14T01:48:14;18.80;65.60
3713;DHT22;1872;51.406;6.856;2023-06-14T01:50:40;18.80;65.60
3713;DHT22;1872;51.406;6.856;2023-06-14T01:53:08;18.80;65.70
3713;DHT22;1872;51.406;6.856;2023-06-14T01:55:34;18.70;65.70
3713;DHT22;1872;51.406;6.856;2023-06-14T01:58:03;18.70;65.70
3713;DHT22;1872;51.406;6.856;2023-06-14T02:00:30;18.60;65.70
3713;DHT22;1872;51.406;6.856;2023-06-14T02:02:55;18.60;66.50
3713;DHT22;1872;51.406;6.856;2023-06-14T02:05:22;18.60;65.80
3713;DHT22;1872;51.406;6.856;2023-06-14T02:07:47;18.50;65.90
3713;DHT22;1872;51.406;6.856;2023-06-14T02:10:13;18.50;66.00
3713;DHT22;1872;51.406;6.856;2023-06-14T02:12:40;18.50;66.00
3713;DHT22;1872;51.406;6.856;2023-06-14T02:15:06;18.50;66.00
3713;DHT22;1872;51.406;6.856;2023-06-14T02:17:32;18.50;66.20
3713;DHT22;1872;51.406;6.856;2023-06-14T02:19:59;18.40;66.20
3713;DHT22;1872;51.406;6.856;2023-06-14T02:22:25;18.40;66.20
3713;DHT22;1872;51.406;6.856;2023-06-14T02:24:50;18.40;66.20
3713;DHT22;1872;51.406;6.856;2023-06-14T02:27:17;18.40;66.30
3713;DHT22;1872;51.406;6.856;2023-06-14T02:29:43;18.40;66.40
3713;DHT22;1872;51.406;6.856;2023-06-14T02:32:09;18.30;66.50
3713;DHT22;1872;51.406;6.856;2023-06-14T02:34:35;18.30;66.70
3713;DHT22;1872;51.406;6.856;2023-06-14T02:37:01;18.20;66.80
3713;DHT22;1872;51.406;6.856;2023-06-14T02:39:29;18.20;66.90
3713;DHT22;1872;51.406;6.856;2023-06-14T02:41:54;18.20;67.00
3713;DHT22;1872;51.406;6.856;2023-06-14T02:44:24;18.20;67.00
3713;DHT22;1872;51.406;6.856;2023-06-14T02:46:51;18.10;67.00
3713;DHT22;1872;51.406;6.856;2023-06-14T02:49:16;18.10;66.90
3713;DHT22;1872;51.406;6.856;2023-06-14T02:51:42;18.10;67.00
3713;DHT22;1872;51.406;6.856;2023-06-14T02:54:08;18.10;67.20
3713;DHT22;1872;51.406;6.856;2023-06-14T02:56:33;18.00;67.10
3713;DHT22;1872;51.406;6.856;2023-06-14T02:58:59;18.00;67.20
3713;DHT22;1872;51.406;6.856;2023-06-14T03:01:26;18.00;67.20
3713;DHT22;1872;51.406;6.856;2023-06-14T03:04:03;18.00;67.40
3713;DHT22;1872;51.406;6.856;2023-06-14T03:06:29;17.90;67.50
3713;DHT22;1872;51.406;6.856;2023-06-14T03:09:02;17.90;67.50
3713;DHT22;1872;51.406;6.856;2023-06-14T03:11:30;17.90;67.50
3713;DHT22;1872;51.406;6.856;2023-06-14T03:13:56;17.90;67.70
3713;DHT22;1872;51.406;6.856;2023-06-14T03:16:22;17.80;67.70
3713;DHT22;1872;51.406;6.856;2023-06-14T03:18:50;17.70;67.60
3713;DHT22;1872;51.406;6.856;2023-06-14T03:21:17;17.80;67.90
3713;DHT22;1872;51.406;6.856;2023-06-14T03:23:43;17.70;68.00
3713;DHT22;1872;51.406;6.856;2023-06-14T03:26:09;17.70;68.00
3713;DHT22;1872;51.406;6.856;2023-06-14T03:28:38;17.60;68.10
3713;DHT22;1872;51.406;6.856;2023-06-14T03:31:04;17.60;68.10
3713;DHT22;1872;51.406;6.856;2023-06-14T03:33:29;17.60;68.30
3713;DHT22;1872;51.406;6.856;2023-06-14T03:35:55;17.60;68.40
3713;DHT22;1872;51.406;6.856;2023-06-14T03:38:22;17.60;68.50
3713;DHT22;1872;51.406;6.856;2023-06-14T03:40:47;17.60;68.60
3713;DHT22;1872;51.406;6.856;2023-06-14T03:43:13;17.50;68.70
3713;DHT22;1872;51.406;6.856;2023-06-14T03:45:39;17.50;68.80
3713;DHT22;1872;51.406;6.856;2023-06-14T03:48:05;17.50;68.80
3713;DHT22;1872;51.406;6.856;2023-06-14T03:50:32;17.50;68.90
3713;DHT22;1872;51.406;6.856;2023-06-14T03:52:58;17.50;69.10
3713;DHT22;1872;51.406;6.856;2023-06-14T03:55:24;17.50;69.20
3713;DHT22;1872;51.406;6.856;2023-06-14T03:57:51;17.40;69.30
3713;DHT22;1872;51.406;6.856;2023-06-14T04:00:17;17.40;69.40
3713;DHT22;1872;51.406;6.856;2023-06-14T04:02:43;17.40;69.60
3713;DHT22;1872;51.406;6.856;2023-06-14T04:05:10;17.40;69.70
3713;DHT22;1872;51.406;6.856;2023-06-14T04:07:36;17.40;69.80
3713;DHT22;1872;51.406;6.856;2023-06-14T04:10:11;17.40;70.10
3713;DHT22;1872;51.406;6.856;2023-06-14T04:12:37;17.30;70.00
3713;DHT22;1872;51.406;6.856;2023-06-14T04:15:04;17.30;69.90
3713;DHT22;1872;51.406;6.856;2023-06-14T04:17:32;17.30;69.90
3713;DHT22;1872;51.406;6.856;2023-06-14T04:20:01;17.40;69.90
3713;DHT22;1872;51.406;6.856;2023-06-14T04:22:27;17.30;69.80
3713;DHT22;1872;51.406;6.856;2023-06-14T04:24:56;17.30;69.80
3713;DHT22;1872;51.406;6.856;2023-06-14T04:27:26;17.30;69.80
3713;DHT22;1872;51.406;6.856;2023-06-14T04:29:55;17.30;69.90
3713;DHT22;1872;51.406;6.856;2023-06-14T04:32:25;17.30;70.00
3713;DHT22;1872;51.406;6.856;2023-06-14T04:34:53;17.30;70.00
3713;DHT22;1872;51.406;6.856;2023-06-14T04:37:20;17.30;70.20
3713;DHT22;1872;51.406;6.856;2023-06-14T04:39:47;17.30;70.20
3713;DHT22;1872;51.406;6.856;2023-06-14T04:42:13;17.30;70.10
3713;DHT22;1872;51.406;6.856;2023-06-14T04:44:40;17.40;70.20
3713;DHT22;1872;51.406;6.856;2023-06-14T04:47:07;17.40;70.20
3713;DHT22;1872;51.406;6.856;2023-06-14T04:49:33;17.40;70.30
3713;DHT22;1872;51.406;6.856;2023-06-14T04:52:00;17.40;70.30
3713;DHT22;1872;51.406;6.856;2023-06-14T04:54:27;17.40;70.20
3713;DHT22;1872;51.406;6.856;2023-06-14T04:56:53;17.40;70.20
3713;DHT22;1872;51.406;6.856;2023-06-14T04:59:21;17.40;70.30
3713;DHT22;1872;51.406;6.856;2023-06-14T05:01:49;17.40;70.30
3713;DHT22;1872;51.406;6.856;2023-06-14T05:04:16;17.40;70.30
3713;DHT22;1872;51.406;6.856;2023-06-14T05:06:43;17.40;70.40
3713;DHT22;1872;51.406;6.856;2023-06-14T05:09:14;17.50;70.50
3713;DHT22;1872;51.406;6.856;2023-06-14T05:11:43;17.50;70.40
3713;DHT22;1872;51.406;6.856;2023-06-14T05:14:11;17.50;70.60
3713;DHT22;1872;51.406;6.856;2023-06-14T05:16:37;17.60;70.90
3713;DHT22;1872;51.406;6.856;2023-06-14T05:19:04;17.60;71.00
3713;DHT22;1872;51.406;6.856;2023-06-14T05:21:30;17.60;70.90
3713;DHT22;1872;51.406;6.856;2023-06-14T05:23:56;17.60;70.80
3713;DHT22;1872;51.406;6.856;2023-06-14T05:26:22;17.70;70.70
3713;DHT22;1872;51.406;6.856;2023-06-14T05:28:57;17.80;70.80
3713;DHT22;1872;51.406;6.856;2023-06-14T05:31:24;17.80;70.70
3713;DHT22;1872;51.406;6.856;2023-06-14T05:33:51;17.90;70.60
3713;DHT22;1872;51.406;6.856;2023-06-14T05:36:17;17.90;70.50
3713;DHT22;1872;51.406;6.856;2023-06-14T05:38:43;18.00;70.70
3713;DHT22;1872;51.406;6.856;2023-06-14T05:41:09;18.00;70.50
3713;DHT22;1872;51.406;6.856;2023-06-14T05:43:34;18.10;70.60
3713;DHT22;1872;51.406;6.856;2023-06-14T05:46:00;18.20;70.60
3713;DHT22;1872;51.406;6.856;2023-06-14T05:48:26;18.20;70.30
3713;DHT22;1872;51.406;6.856;2023-06-14T05:50:51;18.30;70.30
3713;DHT22;1872;51.406;6.856;2023-06-14T05:53:17;18.40;70.20
3713;DHT22;1872;51.406;6.856;2023-06-14T05:55:43;18.50;70.00
3713;DHT22;1872;51.406;6.856;2023-06-14T05:58:09;18.60;69.80
3713;DHT22;1872;51.406;6.856;2023-06-14T06:00:36;18.70;70.40
3713;DHT22;1872;51.406;6.856;2023-06-14T06:03:01;18.80;69.70
3713;DHT22;1872;51.406;6.856;2023-06-14T06:05:27;18.90;69.80
3713;DHT22;1872;51.406;6.856;2023-06-14T06:07:53;19.00;69.80
3713;DHT22;1872;51.406;6.856;2023-06-14T06:10:18;19.10;69.70
3713;DHT22;1872;51.406;6.856;2023-06-14T06:12:44;19.20;69.60
3713;DHT22;1872;51.406;6.856;2023-06-14T06:15:10;19.20;69.40
3713;DHT22;1872;51.406;6.856;2023-06-14T06:17:40;19.30;69.20
3713;DHT22;1872;51.406;6.856;2023-06-14T06:20:06;19.50;69.20
3713;DHT22;1872;51.406;6.856;2023-06-14T06:22:34;19.70;69.00
3713;DHT22;1872;51.406;6.856;2023-06-14T06:25:01;19.80;69.10
3713;DHT22;1872;51.406;6.856;2023-06-14T06:27:26;20.50;68.80
3713;DHT22;1872;51.406;6.856;2023-06-14T06:29:52;21.30;67.40
3713;DHT22;1872;51.406;6.856;2023-06-14T06:32:18;21.40;66.80
3713;DHT22;1872;51.406;6.856;2023-06-14T06:34:44;21.30;66.20
3713;DHT22;1872;51.406;6.856;2023-06-14T06:37:10;21.20;66.40
3713;DHT22;1872;51.406;6.856;2023-06-14T06:39:36;21.10;66.30
3713;DHT22;1872;51.406;6.856;2023-06-14T06:42:02;21.00;66.20
3713;DHT22;1872;51.406;6.856;2023-06-14T06:44:28;20.90;66.20
3713;DHT22;1872;51.406;6.856;2023-06-14T06:46:53;20.90;66.20
3713;DHT22;1872;51.406;6.856;2023-06-14T06:49:19;20.90;66.20
3713;DHT22;1872;51.406;6.856;2023-06-14T06:52:02;20.90;66.20
3713;DHT22;1872;51.406;6.856;2023-06-14T06:54:29;21.00;66.00
3713;DHT22;1872;51.406;6.856;2023-06-14T06:56:55;21.00;65.80
3713;DHT22;1872;51.406;6.856;2023-06-14T06:59:20;21.10;65.60
3713;DHT22;1872;51.406;6.856;2023-06-14T07:01:46;21.20;65.20
3713;DHT22;1872;51.406;6.856;2023-06-14T07:04:13;21.30;64.90
3713;DHT22;1872;51.406;6.856;2023-06-14T07:06:39;21.40;64.60
3713;DHT22;1872;51.406;6.856;2023-06-14T07:12:49;21.50;65.00
3713;DHT22;1872;51.406;6.856;2023-06-14T07:15:17;22.00;65.30
3713;DHT22;1872;51.406;6.856;2023-06-14T07:17:43;22.60;65.70
3713;DHT22;1872;51.406;6.856;2023-06-14T07:20:09;23.00;65.50
3713;DHT22;1872;51.406;6.856;2023-06-14T07:25:13;23.90;65.50
3713;DHT22;1872;51.406;6.856;2023-06-14T07:27:43;24.40;64.50
3713;DHT22;1872;51.406;6.856;2023-06-14T07:30:11;24.70;63.40
3713;DHT22;1872;51.406;6.856;2023-06-14T07:32:40;24.80;62.70
3713;DHT22;1872;51.406;6.856;2023-06-14T07:35:05;24.90;61.30
3713;DHT22;1872;51.406;6.856;2023-06-14T07:37:37;25.10;60.60
3713;DHT22;1872;51.406;6.856;2023-06-14T07:40:04;25.30;60.20
3713;DHT22;1872;51.406;6.856;2023-06-14T07:42:34;25.60;59.90
3713;DHT22;1872;51.406;6.856;2023-06-14T07:45:05;26.00;59.80
3713;DHT22;1872;51.406;6.856;2023-06-14T07:47:32;26.40;59.30
3713;DHT22;1872;51.406;6.856;2023-06-14T07:49:58;26.70;58.80
3713;DHT22;1872;51.406;6.856;2023-06-14T07:52:24;26.70;58.10
3713;DHT22;1872;51.406;6.856;2023-06-14T07:54:50;26.80;58.10
3713;DHT22;1872;51.406;6.856;2023-06-14T07:57:16;26.90;57.60
3713;DHT22;1872;51.406;6.856;2023-06-14T07:59:41;26.70;56.50
3713;DHT22;1872;51.406;6.856;2023-06-14T08:02:07;26.50;56.70
3713;DHT22;1872;51.406;6.856;2023-06-14T08:04:33;26.50;56.10
3713;DHT22;1872;51.406;6.856;2023-06-14T08:07:00;26.60;57.30
3713;DHT22;1872;51.406;6.856;2023-06-14T08:09:26;26.70;56.00
3713;DHT22;1872;51.406;6.856;2023-06-14T08:11:54;27.00;56.00
3713;DHT22;1872;51.406;6.856;2023-06-14T08:14:20;27.00;55.80
3713;DHT22;1872;51.406;6.856;2023-06-14T08:16:46;27.20;55.90
3713;DHT22;1872;51.406;6.856;2023-06-14T08:19:12;27.10;54.90
3713;DHT22;1872;51.406;6.856;2023-06-14T08:21:37;27.10;55.00
3713;DHT22;1872;51.406;6.856;2023-06-14T08:24:03;27.20;55.00
3713;DHT22;1872;51.406;6.856;2023-06-14T08:26:30;27.40;55.10
3713;DHT22;1872;51.406;6.856;2023-06-14T08:28:56;27.60;55.30
3713;DHT22;1872;51.406;6.856;2023-06-14T08:31:22;27.70;54.80
3713;DHT22;1872;51.406;6.856;2023-06-14T08:33:47;27.80;55.00
3713;DHT22;1872;51.406;6.856;2023-06-14T08:36:13;27.80;54.70
3713;DHT22;1872;51.406;6.856;2023-06-14T08:38:39;27.80;54.40
3713;DHT22;1872;51.406;6.856;2023-06-14T08:41:05;27.50;53.40
3713;DHT22;1872;51.406;6.856;2023-06-14T08:43:34;27.30;53.60
3713;DHT22;1872;51.406;6.856;2023-06-14T08:46:04;27.00;53.50
3713;DHT22;1872;51.406;6.856;2023-06-14T08:48:31;27.10;54.30
3713;DHT22;1872;51.406;6.856;2023-06-14T08:51:00;27.00;53.80
3713;DHT22;1872;51.406;6.856;2023-06-14T08:53:32;27.00;54.10
3713;DHT22;1872;51.406;6.856;2023-06-14T08:56:02;27.10;53.80
3713;DHT22;1872;51.406;6.856;2023-06-14T08:58:30;27.10;53.30
3713;DHT22;1872;51.406;6.856;2023-06-14T09:00:58;27.20;53.70
3713;DHT22;1872;51.406;6.856;2023-06-14T09:03:24;27.50;53.80
3713;DHT22;1872;51.406;6.856;2023-06-14T09:05:56;27.50;53.10
3713;DHT22;1872;51.406;6.856;2023-06-14T09:08:21;27.40;53.00
3713;DHT22;1872;51.406;6.856;2023-06-14T09:10:48;27.50;53.10
3713;DHT22;1872;51.406;6.856;2023-06-14T09:13:14;27.60;52.80
3713;DHT22;1872;51.406;6.856;2023-06-14T09:15:40;27.60;52.40
3713;DHT22;1872;51.406;6.856;2023-06-14T09:18:05;27.60;52.00
3713;DHT22;1872;51.406;6.856;2023-06-14T09:20:32;27.50;51.70
3713;DHT22;1872;51.406;6.856;2023-06-14T09:22:58;27.30;51.50
3713;DHT22;1872;51.406;6.856;2023-06-14T09:25:25;27.20;51.70
3713;DHT22;1872;51.406;6.856;2023-06-14T09:27:53;27.00;52.00
3713;DHT22;1872;51.406;6.856;2023-06-14T09:30:21;26.70;52.00
3713;DHT22;1872;51.406;6.856;2023-06-14T09:32:50;26.30;52.10
3713;DHT22;1872;51.406;6.856;2023-06-14T09:35:18;25.90;52.40
3713;DHT22;1872;51.406;6.856;2023-06-14T09:37:44;25.60;52.80
3713;DHT22;1872;51.406;6.856;2023-06-14T09:40:23;25.40;52.90
3713;DHT22;1872;51.406;6.856;2023-06-14T09:42:49;25.10;53.40
3713;DHT22;1872;51.406;6.856;2023-06-14T09:45:21;25.00;53.40
3713;DHT22;1872;51.406;6.856;2023-06-14T09:47:49;25.00;53.30
3713;DHT22;1872;51.406;6.856;2023-06-14T09:50:15;24.90;53.40
3713;DHT22;1872;51.406;6.856;2023-06-14T09:52:43;24.90;53.50
3713;DHT22;1872;51.406;6.856;2023-06-14T09:55:13;24.80;53.30
3713;DHT22;1872;51.406;6.856;2023-06-14T09:57:42;24.70;53.60
3713;DHT22;1872;51.406;6.856;2023-06-14T10:00:11;24.50;53.60
3713;DHT22;1872;51.406;6.856;2023-06-14T10:02:45;24.40;53.50
3713;DHT22;1872;51.406;6.856;2023-06-14T10:05:19;24.30;53.50
3713;DHT22;1872;51.406;6.856;2023-06-14T10:08:08;24.20;53.60
3713;DHT22;1872;51.406;6.856;2023-06-14T10:10:38;24.20;53.80
3713;DHT22;1872;51.406;6.856;2023-06-14T10:13:04;24.10;53.80
3713;DHT22;1872;51.406;6.856;2023-06-14T10:18:17;24.00;54.10
3713;DHT22;1872;51.406;6.856;2023-06-14T10:20:58;24.00;54.20
3713;DHT22;1872;51.406;6.856;2023-06-14T10:23:29;23.90;54.30
3713;DHT22;1872;51.406;6.856;2023-06-14T10:25:58;23.70;54.40
3713;DHT22;1872;51.406;6.856;2023-06-14T10:28:25;23.70;54.60
3713;DHT22;1872;51.406;6.856;2023-06-14T10:31:09;23.60;54.50
3713;DHT22;1872;51.406;6.856;2023-06-14T10:41:27;23.40;54.10
3713;DHT22;1872;51.406;6.856;2023-06-14T10:46:57;23.30;54.10
3713;DHT22;1872;51.406;6.856;2023-06-14T10:49:44;23.10;54.10
3713;DHT22;1872;51.406;6.856;2023-06-14T10:52:15;23.10;54.70
3713;DHT22;1872;51.406;6.856;2023-06-14T10:55:07;23.20;54.70
3713;DHT22;1872;51.406;6.856;2023-06-14T10:57:52;23.10;55.00
3713;DHT22;1872;51.406;6.856;2023-06-14T11:00:23;23.10;55.20
3713;DHT22;1872;51.406;6.856;2023-06-14T11:10:48;23.30;55.60
3713;DHT22;1872;51.406;6.856;2023-06-14T11:13:16;23.30;55.60
3713;DHT22;1872;51.406;6.856;2023-06-14T11:15:48;23.30;55.70
3713;DHT22;1872;51.406;6.856;2023-06-14T11:18:15;23.30;55.90
3713;DHT22;1872;51.406;6.856;2023-06-14T11:20:42;23.30;56.00
3713;DHT22;1872;51.406;6.856;2023-06-14T11:23:08;23.20;55.90
3713;DHT22;1872;51.406;6.856;2023-06-14T11:25:34;23.10;56.00
3713;DHT22;1872;51.406;6.856;2023-06-14T11:28:00;23.10;56.30
3713;DHT22;1872;51.406;6.856;2023-06-14T11:30:26;23.20;56.60
3713;DHT22;1872;51.406;6.856;2023-06-14T11:32:53;23.20;56.60
3713;DHT22;1872;51.406;6.856;2023-06-14T11:35:22;23.30;56.90
3713;DHT22;1872;51.406;6.856;2023-06-14T11:37:55;23.30;56.90
3713;DHT22;1872;51.406;6.856;2023-06-14T11:40:27;23.20;56.90
3713;DHT22;1872;51.406;6.856;2023-06-14T11:43:00;23.10;57.10
3713;DHT22;1872;51.406;6.856;2023-06-14T11:45:27;23.10;57.40
3713;DHT22;1872;51.406;6.856;2023-06-14T11:47:56;23.00;57.30
3713;DHT22;1872;51.406;6.856;2023-06-14T11:50:22;23.00;57.30
3713;DHT22;1872;51.406;6.856;2023-06-14T11:52:59;22.90;57.30
3713;DHT22;1872;51.406;6.856;2023-06-14T11:55:29;22.90;57.70
3713;DHT22;1872;51.406;6.856;2023-06-14T11:57:55;22.90;57.70
3713;DHT22;1872;51.406;6.856;2023-06-14T12:00:25;22.90;57.60
3713;DHT22;1872;51.406;6.856;2023-06-14T12:02:54;22.90;57.70
3713;DHT22;1872;51.406;6.856;2023-06-14T12:05:24;23.00;58.00
3713;DHT22;1872;51.406;6.856;2023-06-14T12:07:58;23.00;58.10
3713;DHT22;1872;51.406;6.856;2023-06-14T12:10:26;23.10;58.20
3713;DHT22;1872;51.406;6.856;2023-06-14T12:12:57;23.10;58.10
3713;DHT22;1872;51.406;6.856;2023-06-14T12:15:23;23.20;58.40
3713;DHT22;1872;51.406;6.856;2023-06-14T12:17:48;23.20;58.40
3713;DHT22;1872;51.406;6.856;2023-06-14T12:20:15;23.30;58.30
3713;DHT22;1872;51.406;6.856;2023-06-14T12:22:58;23.30;58.10
3713;DHT22;1872;51.406;6.856;2023-06-14T12:25:33;23.20;58.30
3713;DHT22;1872;51.406;6.856;2023-06-14T12:28:06;23.20;58.40
3713;DHT22;1872;51.406;6.856;2023-06-14T12:30:33;23.20;58.70
3713;DHT22;1872;51.406;6.856;2023-06-14T12:32:58;23.30;58.90
3713;DHT22;1872;51.406;6.856;2023-06-14T12:35:24;23.40;58.90
3713;DHT22;1872;51.406;6.856;2023-06-14T12:37:50;23.30;58.50
3713;DHT22;1872;51.406;6.856;2023-06-14T12:40:16;23.30;58.60
3713;DHT22;1872;51.406;6.856;2023-06-14T12:42:41;23.30;58.80
3713;DHT22;1872;51.406;6.856;2023-06-14T12:45:08;23.30;58.70
3713;DHT22;1872;51.406;6.856;2023-06-14T12:47:34;23.30;59.20
3713;DHT22;1872;51.406;6.856;2023-06-14T12:49:59;23.30;59.10
3713;DHT22;1872;51.406;6.856;2023-06-14T12:52:26;23.30;59.20
3713;DHT22;1872;51.406;6.856;2023-06-14T12:54:52;23.30;59.20
3713;DHT22;1872;51.406;6.856;2023-06-14T12:57:18;23.30;59.00
3713;DHT22;1872;51.406;6.856;2023-06-14T12:59:43;23.30;58.90
3713;DHT22;1872;51.406;6.856;2023-06-14T13:02:16;23.30;59.10
3713;DHT22;1872;51.406;6.856;2023-06-14T13:04:43;23.40;59.00
3713;DHT22;1872;51.406;6.856;2023-06-14T13:07:09;23.40;59.00
3713;DHT22;1872;51.406;6.856;2023-06-14T13:09:36;23.40;58.70
3713;DHT22;1872;51.406;6.856;2023-06-14T13:12:02;23.40;58.60
3713;DHT22;1872;51.406;6.856;2023-06-14T13:14:28;23.40;58.70
3713;DHT22;1872;51.406;6.856;2023-06-14T13:16:54;23.40;58.70
3713;DHT22;1872;51.406;6.856;2023-06-14T13:19:23;23.40;58.60
3713;DHT22;1872;51.406;6.856;2023-06-14T13:21:49;23.40;58.40
3713;DHT22;1872;51.406;6.856;2023-06-14T13:24:17;23.40;58.40
3713;DHT22;1872;51.406;6.856;2023-06-14T13:26:43;23.40;58.40
3713;DHT22;1872;51.406;6.856;2023-06-14T13:29:09;23.40;58.40
3713;DHT22;1872;51.406;6.856;2023-06-14T13:31:34;23.40;58.40
3713;DHT22;1872;51.406;6.856;2023-06-14T13:34:00;23.40;58.50
3713;DHT22;1872;51.406;6.856;2023-06-14T13:36:26;23.40;58.40
3713;DHT22;1872;51.406;6.856;2023-06-14T13:38:52;23.40;58.30
3713;DHT22;1872;51.406;6.856;2023-06-14T13:41:18;23.40;58.10
3713;DHT22;1872;51.406;6.856;2023-06-14T13:43:44;23.40;58.30
3713;DHT22;1872;51.406;6.856;2023-06-14T13:46:09;23.40;58.30
3713;DHT22;1872;51.406;6.856;2023-06-14T13:48:35;23.50;58.50
3713;DHT22;1872;51.406;6.856;2023-06-14T13:51:01;23.50;58.70
3713;DHT22;1872;51.406;6.856;2023-06-14T13:53:29;23.50;58.70
3713;DHT22;1872;51.406;6.856;2023-06-14T13:55:55;23.60;58.70
3713;DHT22;1872;51.406;6.856;2023-06-14T13:58:20;23.60;58.70
3713;DHT22;1872;51.406;6.856;2023-06-14T14:00:46;23.60;58.60
3713;DHT22;1872;51.406;6.856;2023-06-14T14:03:12;23.60;58.60
3713;DHT22;1872;51.406;6.856;2023-06-14T14:05:38;23.60;59.10
3713;DHT22;1872;51.406;6.856;2023-06-14T14:08:04;23.60;58.60
3713;DHT22;1872;51.406;6.856;2023-06-14T14:10:29;23.70;58.60
3713;DHT22;1872;51.406;6.856;2023-06-14T14:12:55;23.70;58.40
3713;DHT22;1872;51.406;6.856;2023-06-14T14:15:22;23.70;58.30
3713;DHT22;1872;51.406;6.856;2023-06-14T14:17:48;23.70;58.90
3713;DHT22;1872;51.406;6.856;2023-06-14T14:20:14;23.70;58.50
3713;DHT22;1872;51.406;6.856;2023-06-14T14:22:44;23.70;58.40
3713;DHT22;1872;51.406;6.856;2023-06-14T14:25:10;23.70;58.30
3713;DHT22;1872;51.406;6.856;2023-06-14T14:27:36;23.70;58.30
3713;DHT22;1872;51.406;6.856;2023-06-14T14:30:03;23.70;58.10
3713;DHT22;1872;51.406;6.856;2023-06-14T14:32:29;23.80;58.20
3713;DHT22;1872;51.406;6.856;2023-06-14T14:34:55;23.80;58.10
3713;DHT22;1872;51.406;6.856;2023-06-14T14:37:21;23.80;58.10
3713;DHT22;1872;51.406;6.856;2023-06-14T14:39:46;23.80;58.10
3713;DHT22;1872;51.406;6.856;2023-06-14T14:42:12;23.80;57.90
3713;DHT22;1872;51.406;6.856;2023-06-14T14:44:39;23.80;57.80
3713;DHT22;1872;51.406;6.856;2023-06-14T14:47:05;23.80;58.00
3713;DHT22;1872;51.406;6.856;2023-06-14T14:49:31;23.90;58.20
3713;DHT22;1872;51.406;6.856;2023-06-14T14:51:57;23.80;58.10
3713;DHT22;1872;51.406;6.856;2023-06-14T14:54:22;23.80;58.00
3713;DHT22;1872;51.406;6.856;2023-06-14T14:56:50;23.80;58.10
3713;DHT22;1872;51.406;6.856;2023-06-14T14:59:16;23.80;58.00
3713;DHT22;1872;51.406;6.856;2023-06-14T15:01:41;23.80;57.90
3713;DHT22;1872;51.406;6.856;2023-06-14T15:04:07;23.80;57.70
3713;DHT22;1872;51.406;6.856;2023-06-14T15:06:32;23.80;57.70
3713;DHT22;1872;51.406;6.856;2023-06-14T15:09:01;23.80;57.80
3713;DHT22;1872;51.406;6.856;2023-06-14T15:11:26;23.80;57.80
3713;DHT22;1872;51.406;6.856;2023-06-14T15:13:52;23.80;57.80
3713;DHT22;1872;51.406;6.856;2023-06-14T15:16:18;23.80;57.90
3713;DHT22;1872;51.406;6.856;2023-06-14T15:18:44;23.80;57.90
3713;DHT22;1872;51.406;6.856;2023-06-14T15:21:11;23.80;58.00
3713;DHT22;1872;51.406;6.856;2023-06-14T15:23:37;23.80;58.00
3713;DHT22;1872;51.406;6.856;2023-06-14T15:26:02;23.80;58.10
3713;DHT22;1872;51.406;6.856;2023-06-14T15:28:28;23.70;57.80
3713;DHT22;1872;51.406;6.856;2023-06-14T15:30:55;23.70;57.80
3713;DHT22;1872;51.406;6.856;2023-06-14T15:33:22;23.70;57.80
3713;DHT22;1872;51.406;6.856;2023-06-14T15:35:48;23.70;57.90
3713;DHT22;1872;51.406;6.856;2023-06-14T15:38:13;23.70;57.80
3713;DHT22;1872;51.406;6.856;2023-06-14T15:40:39;23.70;57.70
3713;DHT22;1872;51.406;6.856;2023-06-14T15:43:04;23.70;57.50
3713;DHT22;1872;51.406;6.856;2023-06-14T15:45:30;23.80;57.50
3713;DHT22;1872;51.406;6.856;2023-06-14T15:47:57;23.70;57.30
3713;DHT22;1872;51.406;6.856;2023-06-14T15:50:23;23.70;57.40
3713;DHT22;1872;51.406;6.856;2023-06-14T15:52:48;23.70;57.50
3713;DHT22;1872;51.406;6.856;2023-06-14T15:55:14;23.70;57.60
3713;DHT22;1872;51.406;6.856;2023-06-14T15:57:40;23.70;57.50
3713;DHT22;1872;51.406;6.856;2023-06-14T16:00:06;23.60;57.50
3713;DHT22;1872;51.406;6.856;2023-06-14T16:02:33;23.60;57.60
3713;DHT22;1872;51.406;6.856;2023-06-14T16:04:59;23.70;57.70
3713;DHT22;1872;51.406;6.856;2023-06-14T16:07:24;23.70;57.60
3713;DHT22;1872;51.406;6.856;2023-06-14T16:09:50;23.70;57.40
3713;DHT22;1872;51.406;6.856;2023-06-14T16:12:16;23.70;57.20
3713;DHT22;1872;51.406;6.856;2023-06-14T16:14:42;23.80;57.10
3713;DHT22;1872;51.406;6.856;2023-06-14T16:17:07;23.70;57.10
3713;DHT22;1872;51.406;6.856;2023-06-14T16:19:33;23.70;57.10
3713;DHT22;1872;51.406;6.856;2023-06-14T16:21:59;23.60;57.10
3713;DHT22;1872;51.406;6.856;2023-06-14T16:24:24;23.70;57.30
3713;DHT22;1872;51.406;6.856;2023-06-14T16:26:50;23.60;57.10
3713;DHT22;1872;51.406;6.856;2023-06-14T16:29:19;23.60;57.10
3713;DHT22;1872;51.406;6.856;2023-06-14T16:31:45;23.60;56.90
3713;DHT22;1872;51.406;6.856;2023-06-14T16:34:10;23.60;57.00